Weather History for Council Bluffs, IA

Change the Weather History Date:

Monday, February 18, 2013

  Actual Average Record
Temperature  
Mean Temperature 30 °F -  
Max Temperature 41 °F 37 °F 62 °F (1997)
Min Temperature 19 °F 23 °F -4 °F (2006)
Degree Days  
Heating Degree Days 35    
Moisture  
Dew Point 23 °F    
Average Humidity 73    
Maximum Humidity 93    
Minimum Humidity 55    
Precipitation  
Precipitation 0.00 in - - ()
Sea Level Pressure  
Sea Level Pressure 29.75 in    
Wind  
Wind Speed 14 mph (NNW)    
Max Wind Speed 29 mph    
Max Gust Speed 40 mph    
Visibility 10 miles    
Events Snow    
Averages and records for this station are not official NWS values.
T = Trace of Precipitation, MM = Missing Value Source: NWS Daily Summary

Daily Weather History Graph

Daily Weather History Graph

Search for Another Location

Airport:

Trip Planner

Search our weather history database for the weather conditions in past years. The results will help you decide how hot, cold, wet, or windy it might be!

Date:

Astronomy

Feb. 18, 2013 Rise Set
Actual Time 7:13 AM CST 6:01 PM CST
Civil Twilight 6:45 AM CST 6:29 PM CST
Nautical Twilight 6:13 AM CST 7:01 PM CST
Astronomical Twilight 5:41 AM CST 7:33 PM CST
Moon 11:46 AM CST (2/18) 1:55 AM CST (2/18)
Length of Visible Light 11h 44m
Length of Day
10h 47m
First Quarter, 58% of the Moon is Illuminated
Feb 18
First Quarter
Feb 25
Full
Mar 4
Last Quarter
Mar 11
New
Mar 19
First Quarter

Hourly Weather History & Observations

Time (CST) Temp. Windchill Dew Point Humidity Pressure Visibility Wind Dir Wind Speed Gust Speed Precip Events Conditions
12:15 AM 41.0 °F 33.9 °F 32.0 °F 70% 29.56 in 10.0 mi SSE 12.7 mph - N/A   Clear
12:35 AM 39.2 °F 32.0 °F 32.0 °F 75% 29.55 in 10.0 mi SSE 11.5 mph - N/A   Clear
12:55 AM 39.2 °F 32.5 °F 30.2 °F 70% 29.55 in 10.0 mi SSE 10.4 mph - N/A   Clear
1:15 AM 37.4 °F 30.8 °F 30.2 °F 75% 29.54 in 10.0 mi SE 9.2 mph - N/A   Clear
1:35 AM 37.4 °F 31.4 °F 30.2 °F 75% 29.53 in 10.0 mi SSE 8.1 mph - N/A   Clear
1:55 AM 37.4 °F 32.1 °F 30.2 °F 75% 29.54 in 10.0 mi SSE 6.9 mph - N/A   Clear
2:15 AM 39.2 °F 34.2 °F 32.0 °F 75% 29.57 in 10.0 mi NNW 6.9 mph 16.1 mph N/A   Clear
2:35 AM 41.0 °F 38.0 °F 32.0 °F 70% 29.56 in 10.0 mi NW 4.6 mph - N/A   Clear
2:55 AM 41.0 °F - 32.0 °F 70% 29.55 in 10.0 mi Calm Calm - N/A   Clear
3:15 AM 39.2 °F - 32.0 °F 75% 29.54 in 10.0 mi Calm Calm - N/A   Clear
3:35 AM 37.4 °F 30.8 °F 30.2 °F 75% 29.54 in 10.0 mi North 9.2 mph - N/A   Clear
3:55 AM 35.6 °F 31.7 °F 30.2 °F 81% 29.56 in 10.0 mi North 4.6 mph - N/A   Clear
4:15 AM 33.8 °F - 30.2 °F 87% 29.56 in 10.0 mi Calm Calm - N/A   Clear
4:35 AM 37.4 °F 29.8 °F 32.0 °F 81% 29.56 in 10.0 mi North 11.5 mph - N/A   Clear
4:55 AM 35.6 °F 27.5 °F 30.2 °F 81% 29.55 in 10.0 mi North 11.5 mph - N/A   Clear
5:15 AM 35.6 °F 27.5 °F 30.2 °F 81% 29.56 in 10.0 mi North 11.5 mph - N/A   Clear
5:35 AM 37.4 °F 29.8 °F 30.2 °F 75% 29.56 in 10.0 mi North 11.5 mph - N/A   Clear
5:55 AM 39.2 °F 30.8 °F 32.0 °F 75% 29.57 in 10.0 mi North 15.0 mph - N/A   Clear
6:15 AM 37.4 °F 29.3 °F 32.0 °F 81% 29.59 in 10.0 mi North 12.7 mph - N/A   Clear
6:35 AM 37.4 °F 30.8 °F 32.0 °F 81% 29.61 in 10.0 mi NNW 9.2 mph - N/A   Clear
6:55 AM 37.4 °F 29.8 °F 32.0 °F 81% 29.60 in 10.0 mi North 11.5 mph - N/A   Clear
7:15 AM 35.6 °F 27.5 °F 32.0 °F 87% 29.62 in 10.0 mi NNW 11.5 mph 19.6 mph N/A   Clear
7:35 AM 35.6 °F 27.5 °F 32.0 °F 87% 29.64 in 10.0 mi North 11.5 mph - N/A   Clear
7:55 AM 37.4 °F 28.5 °F 32.0 °F 81% 29.63 in 10.0 mi NNW 15.0 mph - N/A   Clear
8:15 AM 37.4 °F 29.3 °F 32.0 °F 81% 29.64 in 10.0 mi North 12.7 mph - N/A   Scattered Clouds
8:35 AM 37.4 °F 27.8 °F 32.0 °F 81% 29.65 in 10.0 mi North 17.3 mph 23.0 mph N/A   Overcast
8:55 AM 37.4 °F 28.2 °F 32.0 °F 81% 29.66 in 10.0 mi North 16.1 mph 26.5 mph N/A   Overcast
9:15 AM 37.4 °F 27.2 °F 32.0 °F 81% 29.67 in 10.0 mi NNW 19.6 mph 26.5 mph N/A   Overcast
9:35 AM 37.4 °F 27.2 °F 30.2 °F 75% 29.67 in 10.0 mi NNW 19.6 mph 27.6 mph N/A   Overcast
9:55 AM 37.4 °F 26.4 °F 30.2 °F 75% 29.67 in 10.0 mi NNW 23.0 mph 32.2 mph N/A   Overcast
10:15 AM 37.4 °F 25.9 °F 30.2 °F 75% 29.68 in 10.0 mi NNW 25.3 mph 34.5 mph N/A   Overcast
10:35 AM 37.4 °F 26.9 °F 28.4 °F 70% 29.69 in 10.0 mi NNW 20.7 mph 32.2 mph N/A   Overcast
10:55 AM 33.8 °F 20.8 °F 30.2 °F 87% 29.71 in 2.5 mi NNW 26.5 mph 39.1 mph N/A Snow Light Snow
11:15 AM 32.0 °F 18.6 °F 28.4 °F 87% 29.74 in 0.5 mi NNW 25.3 mph 36.8 mph N/A Snow Light Snow
11:35 AM 30.2 °F 17.4 °F 28.4 °F 93% 29.76 in 0.8 mi NNW 20.7 mph 29.9 mph N/A Snow Light Snow
11:55 AM 30.2 °F 16.8 °F 24.8 °F 80% 29.76 in 5.0 mi NNW 23.0 mph 28.8 mph N/A Snow Light Snow
12:15 PM 30.2 °F 17.1 °F 24.8 °F 80% 29.76 in 10.0 mi NNW 21.9 mph 31.1 mph N/A   Mostly Cloudy
12:35 PM 32.0 °F 19.5 °F 24.8 °F 75% 29.76 in 10.0 mi NNW 21.9 mph 32.2 mph N/A   Overcast
12:55 PM 30.2 °F 16.8 °F 24.8 °F 80% 29.76 in 10.0 mi NNW 23.0 mph 33.4 mph N/A   Overcast
1:15 PM 30.2 °F 18.9 °F 24.8 °F 80% 29.78 in 10.0 mi NNW 16.1 mph 38.0 mph N/A   Overcast
1:35 PM 30.2 °F 15.7 °F 19.4 °F 64% 29.78 in 10.0 mi NNW 27.6 mph 35.7 mph N/A   Mostly Cloudy
1:55 PM 30.2 °F 15.9 °F 19.4 °F 64% 29.79 in 10.0 mi NNW 26.5 mph 34.5 mph N/A   Scattered Clouds
2:15 PM 30.2 °F 16.8 °F 19.4 °F 64% 29.80 in 10.0 mi NNW 23.0 mph 34.5 mph N/A   Mostly Cloudy
2:35 PM 30.2 °F 18.1 °F 21.2 °F 69% 29.81 in 10.0 mi NW 18.4 mph 33.4 mph N/A   Overcast
2:55 PM 30.2 °F 15.7 °F 17.6 °F 60% 29.81 in 10.0 mi NW 27.6 mph 36.8 mph N/A   Overcast
3:15 PM 30.2 °F 16.8 °F 17.6 °F 60% 29.82 in 10.0 mi NW 23.0 mph 35.7 mph N/A   Overcast
3:35 PM 30.2 °F 15.4 °F 17.6 °F 60% 29.82 in 10.0 mi NNW 28.8 mph 38.0 mph N/A   Mostly Cloudy
3:55 PM 30.2 °F 16.5 °F 15.8 °F 55% 29.83 in 10.0 mi NNW 24.2 mph 40.3 mph N/A   Mostly Cloudy
4:15 PM 30.2 °F 16.2 °F 15.8 °F 55% 29.84 in 10.0 mi NW 25.3 mph 35.7 mph N/A   Mostly Cloudy
4:35 PM 28.4 °F 14.1 °F 14.0 °F 55% 29.85 in 10.0 mi NNW 24.2 mph 36.8 mph N/A   Mostly Cloudy
4:55 PM 28.4 °F 15.1 °F 14.0 °F 55% 29.86 in 10.0 mi NW 20.7 mph 34.5 mph N/A   Partly Cloudy
5:35 PM 28.4 °F 13.3 °F 14.0 °F 55% 29.87 in 10.0 mi NW 27.6 mph 34.5 mph N/A   Partly Cloudy
5:55 PM 26.6 °F 11.7 °F 14.0 °F 59% 29.89 in 10.0 mi NW 24.2 mph 36.8 mph N/A   Clear
6:15 PM 26.6 °F 12.4 °F 14.0 °F 59% 29.90 in 10.0 mi NW 21.9 mph 31.1 mph N/A   Scattered Clouds
6:35 PM 24.8 °F 9.6 °F 14.0 °F 64% 29.91 in 10.0 mi NW 23.0 mph 33.4 mph N/A   Partly Cloudy
6:55 PM 24.8 °F 11.9 °F 14.0 °F 64% 29.93 in 10.0 mi NNW 16.1 mph 29.9 mph N/A   Clear
7:15 PM 24.8 °F 11.5 °F 14.0 °F 64% 29.93 in 10.0 mi NNW 17.3 mph 25.3 mph N/A   Partly Cloudy
7:35 PM 24.8 °F 10.3 °F 14.0 °F 64% 29.94 in 10.0 mi NNW 20.7 mph 26.5 mph N/A   Mostly Cloudy
7:55 PM 23.0 °F 10.1 °F 14.0 °F 68% 29.95 in 10.0 mi NW 15.0 mph 28.8 mph N/A   Scattered Clouds
8:15 PM 23.0 °F 8.3 °F 12.2 °F 63% 29.96 in 10.0 mi NNW 19.6 mph 31.1 mph N/A   Clear
8:35 PM 21.2 °F 6.8 °F 12.2 °F 68% 29.97 in 10.0 mi NNW 17.3 mph 33.4 mph N/A   Clear
8:55 PM 21.2 °F 6.4 °F 12.2 °F 68% 29.97 in 10.0 mi NNW 18.4 mph 28.8 mph N/A   Clear
9:15 PM 21.2 °F 6.4 °F 12.2 °F 68% 29.98 in 10.0 mi NNW 18.4 mph 28.8 mph N/A   Clear
9:35 PM 19.4 °F 6.0 °F 12.2 °F 74% 29.99 in 10.0 mi NNW 13.8 mph 24.2 mph N/A   Clear
9:55 PM 19.4 °F 7.2 °F 12.2 °F 74% 30.00 in 10.0 mi NNW 11.5 mph 19.6 mph N/A   Clear
10:15 PM 19.4 °F 6.0 °F 12.2 °F 74% 30.01 in 10.0 mi NNW 13.8 mph - N/A   Scattered Clouds
10:35 PM 19.4 °F 6.6 °F 12.2 °F 74% 30.02 in 10.0 mi NNW 12.7 mph - N/A   Mostly Cloudy
10:55 PM 19.4 °F 6.0 °F 12.2 °F 74% 30.02 in 10.0 mi NW 13.8 mph 19.6 mph N/A   Overcast
11:15 PM 19.4 °F 5.5 °F 12.2 °F 74% 30.03 in 10.0 mi NW 15.0 mph 21.9 mph N/A   Overcast
11:35 PM 19.4 °F 4.5 °F 12.2 °F 74% 30.03 in 10.0 mi NNW 17.3 mph 24.2 mph N/A Snow Light Snow
11:55 PM 19.4 °F 6.0 °F 14.0 °F 80% 30.03 in 10.0 mi NNW 13.8 mph 21.9 mph N/A Snow Light Snow